Time;durP1;ratioP1;P1;durP2;ratioP2;P2;SDS_P1;SDS_P2;PMS_P1;PMS_P2;Temp;Humidity;BMP_temperature;BMP_pressure;BME280_temperature;BME280_humidity;BME280_pressure;Samples;Min_cycle;Max_cycle;Signal;HPM_P1;HPM_P2
2022/07/03 00:02:10;;;;;;;4.53;2.90;;;;;;;;;;4970492;28;20232;-71
2022/07/03 00:04:37;;;;;;;4.73;2.60;;;;;;;;;;4969308;28;20823;-71
2022/07/03 00:07:03;;;;;;;3.20;2.10;;;;;;;;;;4974498;28;20195;-71
2022/07/03 00:09:29;;;;;;;3.37;2.37;;;;;;;;;;4972542;28;20196;-71
2022/07/03 00:11:56;;;;;;;3.37;2.30;;;;;;;;;;4972470;28;20228;-71
2022/07/03 00:14:22;;;;;;;2.50;2.20;;;;;;;;;;4974587;28;20187;-71
2022/07/03 00:16:48;;;;;;;3.37;2.10;;;;;;;;;;4971976;28;20185;-71
2022/07/03 00:19:14;;;;;;;2.47;2.10;;;;;;;;;;4968251;28;20583;-71
2022/07/03 00:21:50;;;;;;;2.63;2.40;;;;;;;;;;4968756;28;20207;-72
2022/07/03 00:24:20;;;;;;;4.00;2.30;;;;;;;;;;4968963;28;20180;-71
2022/07/03 00:26:49;;;;;;;2.40;2.20;;;;;;;;;;4967892;28;20588;-71
2022/07/03 00:29:15;;;;;;;4.57;2.20;;;;;;;;;;4951519;28;20196;-71
2022/07/03 00:31:42;;;;;;;2.53;2.33;;;;;;;;;;4969471;28;22019;-71
2022/07/03 00:34:12;;;;;;;2.47;2.23;;;;;;;;;;4969697;28;20275;-71
2022/07/03 00:36:38;;;;;;;2.70;2.20;;;;;;;;;;4973110;28;20656;-71
2022/07/03 00:39:05;;;;;;;2.03;1.90;;;;;;;;;;4977649;28;20699;-71
2022/07/03 00:41:32;;;;;;;2.80;2.13;;;;;;;;;;4969458;28;20217;-71
2022/07/03 00:43:58;;;;;;;2.53;2.07;;;;;;;;;;4970656;28;20216;-71
2022/07/03 00:46:26;;;;;;;1.90;1.80;;;;;;;;;;4970744;28;20245;-71
2022/07/03 00:48:53;;;;;;;1.90;1.70;;;;;;;;;;4972478;28;20582;-71
2022/07/03 00:51:23;;;;;;;2.03;1.80;;;;;;;;;;4969376;28;20235;-71
2022/07/03 00:53:51;;;;;;;2.47;2.10;;;;;;;;;;4968601;28;20188;-71
2022/07/03 00:56:19;;;;;;;3.47;2.00;;;;;;;;;;4954408;28;20572;-71
2022/07/03 00:58:45;;;;;;;2.13;1.70;;;;;;;;;;4970489;28;20271;-71
2022/07/03 01:01:12;;;;;;;4.77;1.90;;;;;;;;;;4968741;28;20256;-71
2022/07/03 01:03:40;;;;;;;2.10;1.70;;;;;;;;;;4967798;28;20272;-71
2022/07/03 01:06:11;;;;;;;2.30;1.90;;;;;;;;;;4967369;28;20185;-71
2022/07/03 01:08:43;;;;;;;4.27;2.00;;;;;;;;;;4969353;28;20219;-71
2022/07/03 01:11:15;;;;;;;3.10;1.67;;;;;;;;;;4967477;28;20208;-71
2022/07/03 01:13:51;;;;;;;1.80;1.67;;;;;;;;;;4966043;28;20195;-71
2022/07/03 01:16:23;;;;;;;2.60;2.03;;;;;;;;;;4970190;28;20783;-71
2022/07/03 01:18:51;;;;;;;2.70;2.10;;;;;;;;;;4966468;28;20212;-71
2022/07/03 01:21:25;;;;;;;2.37;1.90;;;;;;;;;;4970157;28;20203;-71
2022/07/03 01:24:00;;;;;;;3.30;1.80;;;;;;;;;;4966530;28;20184;-71
2022/07/03 01:26:28;;;;;;;3.10;2.13;;;;;;;;;;4969796;28;20704;-71
2022/07/03 01:28:55;;;;;;;3.70;1.90;;;;;;;;;;4969916;28;20676;-71
2022/07/03 01:31:22;;;;;;;2.20;1.90;;;;;;;;;;4967984;28;20213;-71
2022/07/03 01:33:51;;;;;;;2.43;1.80;;;;;;;;;;4967953;28;20243;-71
2022/07/03 01:36:18;;;;;;;2.37;2.17;;;;;;;;;;4970287;28;20189;-71
2022/07/03 01:38:45;;;;;;;1.80;1.70;;;;;;;;;;4964432;28;20216;-71
2022/07/03 01:41:12;;;;;;;3.73;2.27;;;;;;;;;;4970070;28;20228;-71
2022/07/03 01:43:46;;;;;;;2.93;2.00;;;;;;;;;;4968864;28;20535;-71
2022/07/03 01:46:13;;;;;;;3.20;2.20;;;;;;;;;;4971245;28;20180;-71
2022/07/03 01:48:42;;;;;;;3.60;2.17;;;;;;;;;;4968380;28;20534;-71
2022/07/03 01:51:10;;;;;;;2.20;2.00;;;;;;;;;;4968177;28;20205;-71
2022/07/03 01:53:36;;;;;;;2.67;2.00;;;;;;;;;;4970762;28;20228;-71
2022/07/03 01:56:03;;;;;;;3.77;2.23;;;;;;;;;;4966591;28;20250;-71
2022/07/03 01:58:29;;;;;;;3.07;2.10;;;;;;;;;;4966923;28;20212;-71
2022/07/03 02:00:58;;;;;;;2.73;2.07;;;;;;;;;;4965908;28;20177;-71
2022/07/03 02:03:30;;;;;;;2.23;2.03;;;;;;;;;;4968439;28;20648;-71
2022/07/03 02:06:05;;;;;;;2.53;2.10;;;;;;;;;;4966253;28;20220;-71
2022/07/03 02:09:04;;;;;;;4.17;2.10;;;;;;;;;;4968589;28;20316;-71
2022/07/03 02:11:33;;;;;;;2.80;2.43;;;;;;;;;;4931525;28;20359;-71
2022/07/03 02:14:00;;;;;;;3.23;2.50;;;;;;;;;;4951660;28;20701;-71
2022/07/03 02:16:26;;;;;;;2.30;2.07;;;;;;;;;;4973146;28;20200;-71
2022/07/03 02:19:12;;;;;;;2.97;2.40;;;;;;;;;;4974012;28;20673;-71
2022/07/03 02:21:44;;;;;;;2.53;2.17;;;;;;;;;;4974326;28;20247;-71
2022/07/03 02:24:18;;;;;;;3.43;2.20;;;;;;;;;;4972569;28;20219;-71
2022/07/03 02:26:47;;;;;;;2.20;2.00;;;;;;;;;;4976560;28;20200;-71
2022/07/03 02:29:15;;;;;;;3.13;2.40;;;;;;;;;;4973844;28;20661;-71
2022/07/03 02:31:43;;;;;;;2.80;2.50;;;;;;;;;;4976147;28;20213;-71
2022/07/03 02:34:13;;;;;;;3.47;2.37;;;;;;;;;;4973741;28;20357;-71
2022/07/03 02:36:40;;;;;;;3.03;2.40;;;;;;;;;;4972690;28;20611;-71
2022/07/03 02:39:12;;;;;;;3.80;2.27;;;;;;;;;;4972180;28;20205;-71
2022/07/03 02:41:46;;;;;;;3.13;2.53;;;;;;;;;;4971554;28;20663;-71
2022/07/03 02:44:25;;;;;;;3.60;2.20;;;;;;;;;;4973649;28;20188;-71
2022/07/03 02:47:01;;;;;;;3.57;2.20;;;;;;;;;;4970221;28;20180;-71
2022/07/03 02:49:48;;;;;;;5.47;2.30;;;;;;;;;;4971212;28;20188;-71
2022/07/03 02:52:33;;;;;;;3.13;2.33;;;;;;;;;;4973750;28;20204;-71
2022/07/03 02:55:18;;;;;;;3.43;2.50;;;;;;;;;;4970338;28;20200;-71
2022/07/03 02:57:45;;;;;;;4.37;2.60;;;;;;;;;;4970715;28;20275;-71
2022/07/03 03:00:12;;;;;;;3.40;2.30;;;;;;;;;;4969538;28;20189;-71
2022/07/03 03:02:55;;;;;;;3.10;2.40;;;;;;;;;;4971630;28;20208;-71
2022/07/03 03:05:21;;;;;;;2.80;2.40;;;;;;;;;;4968320;28;20184;-71
2022/07/03 03:07:57;;;;;;;4.17;2.70;;;;;;;;;;4970041;28;20185;-71
2022/07/03 03:10:23;;;;;;;3.80;2.30;;;;;;;;;;4971994;28;20207;-71
2022/07/03 03:12:57;;;;;;;2.90;2.30;;;;;;;;;;4968250;28;20631;-71
2022/07/03 03:15:25;;;;;;;5.17;2.80;;;;;;;;;;4972135;28;20183;-71
2022/07/03 03:17:52;;;;;;;5.60;2.60;;;;;;;;;;4969746;28;20188;-71
2022/07/03 03:20:23;;;;;;;3.70;2.20;;;;;;;;;;4971463;28;20188;-71
2022/07/03 03:22:58;;;;;;;5.03;2.50;;;;;;;;;;4970532;28;20660;-71
2022/07/03 03:25:24;;;;;;;3.70;2.20;;;;;;;;;;4970308;28;20561;-71
2022/07/03 03:27:51;;;;;;;2.40;2.20;;;;;;;;;;4970022;28;20188;-71
2022/07/03 03:30:17;;;;;;;2.60;2.40;;;;;;;;;;4971701;28;20194;-71
2022/07/03 03:32:43;;;;;;;2.37;2.17;;;;;;;;;;4969294;28;20209;-71
2022/07/03 03:35:09;;;;;;;2.50;2.30;;;;;;;;;;4972357;28;20675;-71
2022/07/03 03:37:35;;;;;;;3.40;2.50;;;;;;;;;;4971146;28;20189;-71
2022/07/03 03:40:05;;;;;;;2.60;2.40;;;;;;;;;;4969872;28;20263;-71
2022/07/03 03:42:31;;;;;;;4.03;2.83;;;;;;;;;;4970105;28;20211;-71
2022/07/03 03:44:58;;;;;;;2.93;2.63;;;;;;;;;;4971319;28;20247;-71
2022/07/03 03:47:25;;;;;;;2.80;2.43;;;;;;;;;;4970247;28;20229;-71
2022/07/03 03:49:51;;;;;;;3.97;2.40;;;;;;;;;;4974112;28;20195;-71
2022/07/03 03:52:17;;;;;;;2.93;2.63;;;;;;;;;;4970509;28;20208;-71
2022/07/03 03:54:43;;;;;;;3.20;2.43;;;;;;;;;;4971762;28;20595;-71
2022/07/03 03:57:20;;;;;;;2.70;2.30;;;;;;;;;;4971981;28;20196;-71
2022/07/03 03:59:46;;;;;;;2.60;2.40;;;;;;;;;;4973243;28;20219;-71
2022/07/03 04:02:13;;;;;;;2.40;2.20;;;;;;;;;;4969124;28;20204;-71
2022/07/03 04:04:39;;;;;;;2.57;2.20;;;;;;;;;;4974573;28;20695;-71
2022/07/03 04:07:05;;;;;;;3.67;2.33;;;;;;;;;;4972830;28;20184;-71
2022/07/03 04:09:32;;;;;;;3.23;2.60;;;;;;;;;;4975603;28;20596;-71
2022/07/03 04:11:58;;;;;;;2.40;2.20;;;;;;;;;;4968960;28;20584;-71
2022/07/03 04:14:24;;;;;;;4.30;2.40;;;;;;;;;;4969964;28;20255;-71
2022/07/03 04:16:50;;;;;;;2.70;2.17;;;;;;;;;;4970055;28;20192;-71
2022/07/03 04:19:16;;;;;;;2.17;1.97;;;;;;;;;;4972673;28;20238;-71
2022/07/03 04:21:43;;;;;;;4.77;2.00;;;;;;;;;;4973382;28;20208;-71
2022/07/03 04:24:09;;;;;;;3.23;2.20;;;;;;;;;;4973026;28;20287;-72
2022/07/03 04:26:35;;;;;;;5.03;2.50;;;;;;;;;;4970875;28;20177;-71
2022/07/03 04:29:01;;;;;;;2.80;2.10;;;;;;;;;;4973806;28;20201;-71
2022/07/03 04:31:27;;;;;;;3.00;2.07;;;;;;;;;;4970179;28;20727;-71
2022/07/03 04:33:53;;;;;;;3.50;2.57;;;;;;;;;;4970258;28;20279;-71
2022/07/03 04:36:19;;;;;;;3.03;2.27;;;;;;;;;;4967637;28;20295;-71
2022/07/03 04:38:46;;;;;;;2.37;2.00;;;;;;;;;;4967345;28;20574;-71
2022/07/03 04:41:12;;;;;;;3.87;2.07;;;;;;;;;;4968341;28;20210;-71
2022/07/03 04:43:38;;;;;;;4.50;2.13;;;;;;;;;;4968623;28;20193;-71
2022/07/03 04:46:04;;;;;;;6.53;2.40;;;;;;;;;;4968522;28;20632;-71
2022/07/03 04:48:32;;;;;;;3.03;2.10;;;;;;;;;;4970167;28;20199;-71
2022/07/03 04:50:58;;;;;;;2.97;2.33;;;;;;;;;;4969029;28;20195;-71
2022/07/03 04:53:25;;;;;;;2.10;1.90;;;;;;;;;;4968175;28;20188;-71
2022/07/03 04:55:52;;;;;;;5.60;2.20;;;;;;;;;;4970338;28;20189;-71
2022/07/03 04:58:18;;;;;;;3.83;2.10;;;;;;;;;;4968997;28;20704;-71
2022/07/03 05:00:45;;;;;;;2.23;2.00;;;;;;;;;;4970686;28;20204;-71
2022/07/03 05:03:12;;;;;;;3.27;2.23;;;;;;;;;;4969324;28;20199;-71
2022/07/03 05:05:38;;;;;;;2.43;2.20;;;;;;;;;;4969365;28;20176;-71
2022/07/03 05:08:05;;;;;;;2.30;2.10;;;;;;;;;;4967692;28;20211;-71
2022/07/03 05:10:31;;;;;;;2.63;2.10;;;;;;;;;;4971198;28;20898;-71
2022/07/03 05:12:57;;;;;;;3.57;1.90;;;;;;;;;;4966380;28;20768;-71
2022/07/03 05:15:23;;;;;;;3.60;1.90;;;;;;;;;;4971320;28;20177;-71
2022/07/03 05:17:50;;;;;;;2.07;1.87;;;;;;;;;;4967733;28;20608;-72
2022/07/03 05:20:27;;;;;;;1.80;1.70;;;;;;;;;;4969099;28;20180;-71
2022/07/03 05:22:57;;;;;;;1.90;1.80;;;;;;;;;;4968443;28;20211;-71
2022/07/03 05:25:24;;;;;;;2.63;2.10;;;;;;;;;;4970477;28;20187;-71
2022/07/03 05:27:50;;;;;;;1.97;1.73;;;;;;;;;;4970198;28;20177;-71
2022/07/03 05:30:17;;;;;;;2.20;2.00;;;;;;;;;;4971013;28;20172;-71
2022/07/03 05:32:43;;;;;;;2.20;1.80;;;;;;;;;;4967401;28;20218;-71
2022/07/03 05:35:09;;;;;;;2.47;1.90;;;;;;;;;;4970049;28;20640;-71
2022/07/03 05:37:36;;;;;;;1.93;1.73;;;;;;;;;;4969012;28;20186;-71
2022/07/03 05:40:02;;;;;;;2.43;1.97;;;;;;;;;;4966220;28;20208;-71
2022/07/03 05:42:28;;;;;;;2.60;1.80;;;;;;;;;;4965031;28;20301;-71
2022/07/03 05:44:54;;;;;;;2.90;2.10;;;;;;;;;;4969677;28;20184;-71
2022/07/03 05:47:20;;;;;;;2.10;1.90;;;;;;;;;;4968960;28;20193;-71
2022/07/03 05:49:47;;;;;;;2.00;1.80;;;;;;;;;;4978166;28;20224;-71
2022/07/03 05:52:13;;;;;;;2.13;1.93;;;;;;;;;;4973884;28;20227;-71
2022/07/03 05:54:40;;;;;;;1.80;1.70;;;;;;;;;;4976973;28;20187;-71
2022/07/03 05:57:06;;;;;;;2.03;1.63;;;;;;;;;;4974769;28;20189;-71
2022/07/03 05:59:32;;;;;;;2.27;1.97;;;;;;;;;;4972272;28;20295;-72
2022/07/03 06:01:58;;;;;;;3.73;1.80;;;;;;;;;;4972252;28;20212;-71
2022/07/03 06:04:24;;;;;;;2.60;1.87;;;;;;;;;;4973098;28;20587;-71
2022/07/03 06:06:51;;;;;;;2.27;1.87;;;;;;;;;;4973078;28;20189;-71
2022/07/03 06:09:17;;;;;;;2.13;1.93;;;;;;;;;;4971072;28;20193;-71
2022/07/03 06:11:43;;;;;;;3.33;1.83;;;;;;;;;;4969119;28;20327;-74
2022/07/03 06:14:09;;;;;;;3.97;1.80;;;;;;;;;;4971607;28;20184;-73
2022/07/03 06:16:35;;;;;;;2.07;1.87;;;;;;;;;;4966353;28;20193;-74
2022/07/03 06:19:01;;;;;;;1.97;1.50;;;;;;;;;;4970972;28;20197;-76
2022/07/03 06:21:28;;;;;;;2.20;2.00;;;;;;;;;;4974471;28;20211;-72
2022/07/03 06:23:54;;;;;;;2.17;1.90;;;;;;;;;;4975692;28;20187;-74
2022/07/03 06:26:20;;;;;;;2.23;2.00;;;;;;;;;;4970890;28;20684;-74
2022/07/03 06:28:46;;;;;;;3.20;2.00;;;;;;;;;;4976877;28;20220;-72
2022/07/03 06:31:12;;;;;;;2.90;1.90;;;;;;;;;;4972407;28;20207;-72
2022/07/03 06:33:38;;;;;;;1.90;1.80;;;;;;;;;;4969415;28;20181;-72
2022/07/03 06:36:04;;;;;;;2.70;1.97;;;;;;;;;;4971469;28;20945;-73
2022/07/03 06:38:31;;;;;;;2.27;2.07;;;;;;;;;;4970801;28;20288;-72
2022/07/03 06:40:57;;;;;;;4.70;2.00;;;;;;;;;;4966230;28;20215;-72
2022/07/03 06:43:23;;;;;;;2.03;1.80;;;;;;;;;;4964152;28;20188;-72
2022/07/03 06:45:49;;;;;;;2.73;2.00;;;;;;;;;;4968984;28;20185;-71
2022/07/03 06:48:16;;;;;;;2.30;2.10;;;;;;;;;;4962492;28;20196;-71
2022/07/03 06:50:42;;;;;;;2.30;2.10;;;;;;;;;;4969652;28;20673;-71
2022/07/03 06:53:08;;;;;;;2.10;2.00;;;;;;;;;;4971094;28;20200;-71
2022/07/03 06:55:35;;;;;;;2.43;2.10;;;;;;;;;;4968687;28;20656;-71
2022/07/03 06:58:01;;;;;;;2.40;2.20;;;;;;;;;;4969703;28;20192;-72
2022/07/03 07:00:27;;;;;;;4.03;2.10;;;;;;;;;;4969121;28;20193;-71
2022/07/03 07:02:54;;;;;;;2.30;2.10;;;;;;;;;;4970811;28;20240;-71
2022/07/03 07:05:22;;;;;;;2.87;2.00;;;;;;;;;;4971777;28;20180;-71
2022/07/03 07:07:48;;;;;;;2.33;1.80;;;;;;;;;;4969825;28;20247;-71
2022/07/03 07:10:15;;;;;;;3.00;2.00;;;;;;;;;;4966733;28;20177;-72
2022/07/03 07:12:41;;;;;;;2.13;1.90;;;;;;;;;;4969012;28;20290;-71
2022/07/03 07:15:08;;;;;;;3.70;1.90;;;;;;;;;;4967881;28;20188;-71
2022/07/03 07:17:34;;;;;;;2.50;1.87;;;;;;;;;;4962330;28;20184;-72
2022/07/03 07:20:00;;;;;;;4.90;1.70;;;;;;;;;;4969451;28;20208;-71
2022/07/03 07:22:27;;;;;;;4.13;2.10;;;;;;;;;;4968280;28;20688;-72
2022/07/03 07:24:53;;;;;;;3.67;2.00;;;;;;;;;;4970593;28;20637;-72
2022/07/03 07:27:20;;;;;;;2.40;2.10;;;;;;;;;;4966940;28;20188;-71
2022/07/03 07:29:46;;;;;;;2.10;1.90;;;;;;;;;;4971008;28;20192;-71
2022/07/03 07:32:13;;;;;;;2.03;1.90;;;;;;;;;;4952973;28;20223;-72
2022/07/03 07:34:40;;;;;;;2.10;2.00;;;;;;;;;;4972492;28;20180;-71
2022/07/03 07:37:06;;;;;;;2.87;2.00;;;;;;;;;;4967900;28;22185;-71
2022/07/03 07:39:33;;;;;;;2.40;2.10;;;;;;;;;;4970978;28;20192;-71
2022/07/03 07:41:59;;;;;;;2.27;2.03;;;;;;;;;;4968109;28;20236;-71
2022/07/03 07:44:25;;;;;;;3.00;1.87;;;;;;;;;;4970822;28;20656;-76
2022/07/03 07:46:52;;;;;;;3.00;1.93;;;;;;;;;;4968993;28;20668;-73
2022/07/03 07:49:18;;;;;;;2.83;2.03;;;;;;;;;;4965643;28;20552;-73
2022/07/03 07:51:45;;;;;;;2.10;1.90;;;;;;;;;;4969723;28;20231;-72
2022/07/03 07:54:11;;;;;;;2.30;2.10;;;;;;;;;;4969848;28;20188;-73
2022/07/03 07:56:38;;;;;;;2.40;2.20;;;;;;;;;;4969177;28;20688;-73
2022/07/03 07:59:04;;;;;;;3.00;1.90;;;;;;;;;;4967884;28;20667;-73
2022/07/03 08:07:00;;;;;;;4.27;2.10;;;;;;;;;;4968893;28;20254;-73
2022/07/03 08:09:26;;;;;;;3.13;2.10;;;;;;;;;;4968113;28;20568;-73
2022/07/03 08:11:52;;;;;;;2.27;2.00;;;;;;;;;;4967436;28;20209;-73
2022/07/03 08:14:18;;;;;;;2.00;1.80;;;;;;;;;;4970066;28;20201;-73
2022/07/03 08:16:46;;;;;;;2.30;1.87;;;;;;;;;;4969074;28;20181;-73
2022/07/03 08:19:12;;;;;;;3.77;1.93;;;;;;;;;;4967322;28;20216;-73
2022/07/03 08:21:38;;;;;;;4.67;2.50;;;;;;;;;;4969991;28;20709;-73
2022/07/03 08:24:05;;;;;;;2.80;1.90;;;;;;;;;;4968835;28;20297;-73
2022/07/03 08:26:31;;;;;;;2.47;1.83;;;;;;;;;;4970404;28;20230;-73
2022/07/03 08:28:57;;;;;;;4.80;2.27;;;;;;;;;;4966683;28;20193;-73
2022/07/03 08:31:24;;;;;;;2.33;1.90;;;;;;;;;;4968430;28;20565;-73
2022/07/03 08:33:50;;;;;;;4.10;1.90;;;;;;;;;;4967354;28;20185;-73
2022/07/03 08:36:16;;;;;;;2.07;1.80;;;;;;;;;;4961294;28;20305;-73
2022/07/03 08:38:42;;;;;;;2.20;2.00;;;;;;;;;;4968032;28;20204;-73
2022/07/03 08:41:09;;;;;;;1.70;1.60;;;;;;;;;;4968234;28;20196;-73
2022/07/03 08:43:36;;;;;;;2.10;1.80;;;;;;;;;;4969504;28;20238;-73
2022/07/03 08:46:03;;;;;;;2.03;1.83;;;;;;;;;;4970474;28;20723;-73
2022/07/03 08:48:32;;;;;;;2.17;1.70;;;;;;;;;;4965389;28;20206;-73
2022/07/03 08:50:59;;;;;;;1.70;1.60;;;;;;;;;;4965472;28;20189;-71
2022/07/03 08:53:25;;;;;;;2.47;1.60;;;;;;;;;;4968212;28;20193;-74
2022/07/03 08:55:52;;;;;;;1.60;1.50;;;;;;;;;;4969783;28;20236;-73
2022/07/03 08:58:22;;;;;;;2.40;1.60;;;;;;;;;;4973679;28;20572;-73
2022/07/03 09:00:48;;;;;;;1.90;1.67;;;;;;;;;;4970268;28;20216;-74
2022/07/03 09:03:14;;;;;;;1.70;1.60;;;;;;;;;;4968039;28;20187;-73
2022/07/03 09:05:41;;;;;;;2.13;1.60;;;;;;;;;;4972730;28;20628;-73
2022/07/03 09:08:08;;;;;;;1.63;1.43;;;;;;;;;;4970642;28;20184;-73
2022/07/03 09:10:34;;;;;;;1.83;1.60;;;;;;;;;;4969474;28;20188;-73
2022/07/03 09:13:00;;;;;;;2.00;1.40;;;;;;;;;;4966768;28;20197;-73
2022/07/03 09:15:26;;;;;;;1.80;1.70;;;;;;;;;;4972732;28;20220;-73
2022/07/03 09:18:00;;;;;;;3.57;1.57;;;;;;;;;;4970396;28;20288;-73
2022/07/03 09:20:33;;;;;;;1.70;1.60;;;;;;;;;;4972910;28;20193;-73
2022/07/03 09:23:13;;;;;;;1.60;1.50;;;;;;;;;;4967985;28;20210;-72
2022/07/03 09:25:50;;;;;;;1.70;1.43;;;;;;;;;;4970023;28;20212;-72
2022/07/03 09:28:16;;;;;;;4.40;1.60;;;;;;;;;;4968269;28;20188;-72
2022/07/03 09:30:56;;;;;;;3.33;1.70;;;;;;;;;;4968342;28;20196;-73
2022/07/03 09:33:22;;;;;;;1.80;1.70;;;;;;;;;;4975047;28;20191;-73
2022/07/03 09:35:52;;;;;;;1.73;1.60;;;;;;;;;;4958397;28;20231;-72
2022/07/03 09:38:19;;;;;;;1.60;1.50;;;;;;;;;;4971700;28;20317;-73
2022/07/03 09:40:50;;;;;;;1.43;1.33;;;;;;;;;;4968815;28;20203;-73
2022/07/03 09:43:22;;;;;;;1.70;1.50;;;;;;;;;;4972910;28;20636;-73
2022/07/03 09:45:49;;;;;;;3.03;1.60;;;;;;;;;;4967024;28;20267;-72
2022/07/03 09:48:27;;;;;;;1.50;1.40;;;;;;;;;;4967770;28;20195;-73
2022/07/03 09:51:09;;;;;;;3.07;1.70;;;;;;;;;;4976025;28;20184;-72
2022/07/03 09:53:52;;;;;;;2.07;1.57;;;;;;;;;;4971722;28;20172;-72
2022/07/03 09:56:22;;;;;;;2.67;1.60;;;;;;;;;;4966717;28;20180;-73
2022/07/03 09:59:07;;;;;;;1.90;1.60;;;;;;;;;;4965820;28;20220;-72
2022/07/03 10:01:34;;;;;;;2.27;1.50;;;;;;;;;;4969886;28;20204;-72
2022/07/03 10:04:29;;;;;;;2.13;1.60;;;;;;;;;;4966143;28;20187;-72
2022/07/03 10:06:59;;;;;;;2.67;1.60;;;;;;;;;;4948060;28;20212;-72
2022/07/03 10:09:27;;;;;;;1.67;1.53;;;;;;;;;;4968497;28;20196;-72
2022/07/03 10:11:54;;;;;;;1.90;1.60;;;;;;;;;;4966445;28;20359;-72
2022/07/03 10:14:22;;;;;;;2.60;1.60;;;;;;;;;;4967412;28;20220;-72
2022/07/03 10:16:49;;;;;;;1.67;1.57;;;;;;;;;;4969396;28;20202;-72
2022/07/03 10:19:23;;;;;;;3.33;1.50;;;;;;;;;;4967821;28;20942;-72
2022/07/03 10:22:10;;;;;;;2.90;1.50;;;;;;;;;;4966641;28;20208;-72
2022/07/03 10:24:36;;;;;;;2.10;1.30;;;;;;;;;;4968876;28;20975;-72
2022/07/03 10:27:03;;;;;;;4.10;1.70;;;;;;;;;;4967511;28;20274;-72
2022/07/03 10:29:29;;;;;;;1.60;1.50;;;;;;;;;;4967883;28;20311;-72
2022/07/03 10:31:57;;;;;;;1.73;1.40;;;;;;;;;;4968310;28;20209;-72
2022/07/03 10:34:27;;;;;;;2.13;1.53;;;;;;;;;;4971696;28;20192;-72
2022/07/03 10:36:57;;;;;;;1.93;1.40;;;;;;;;;;4969638;28;20192;-72
2022/07/03 10:39:30;;;;;;;2.13;1.40;;;;;;;;;;4969303;28;20228;-72
2022/07/03 10:45:11;;;;;;;2.57;1.30;;;;;;;;;;4930707;28;20208;-72
2022/07/03 10:47:38;;;;;;;1.50;1.20;;;;;;;;;;4942252;28;20199;-72
2022/07/03 10:50:10;;;;;;;1.20;1.10;;;;;;;;;;4972984;28;20668;-73
2022/07/03 10:52:37;;;;;;;1.33;1.20;;;;;;;;;;4969860;28;20611;-73
2022/07/03 10:55:06;;;;;;;1.50;1.20;;;;;;;;;;4973469;28;20208;-75
2022/07/03 10:57:33;;;;;;;1.50;1.30;;;;;;;;;;4969632;28;20194;-73
2022/07/03 11:00:00;;;;;;;1.37;1.10;;;;;;;;;;4970533;28;20235;-73
2022/07/03 11:02:31;;;;;;;2.17;1.40;;;;;;;;;;4968343;28;20283;-73
2022/07/03 11:05:01;;;;;;;2.87;1.53;;;;;;;;;;4954252;28;20653;-73
2022/07/03 11:07:33;;;;;;;1.90;1.47;;;;;;;;;;4967451;28;20194;-73
2022/07/03 11:10:15;;;;;;;2.77;1.20;;;;;;;;;;4967720;28;20189;-73
2022/07/03 11:12:50;;;;;;;1.30;1.20;;;;;;;;;;4969602;28;20219;-74
2022/07/03 11:15:32;;;;;;;2.63;1.40;;;;;;;;;;4971465;28;20196;-75
2022/07/03 11:18:17;;;;;;;1.70;1.20;;;;;;;;;;4969999;28;20374;-73
2022/07/03 11:20:43;;;;;;;1.73;1.43;;;;;;;;;;4971095;28;20198;-73
2022/07/03 11:23:10;;;;;;;2.83;1.40;;;;;;;;;;4968225;28;20212;-73
2022/07/03 11:25:39;;;;;;;1.63;1.20;;;;;;;;;;4966838;28;20195;-73
2022/07/03 11:28:05;;;;;;;3.37;1.50;;;;;;;;;;4967817;28;20195;-73
2022/07/03 11:30:32;;;;;;;4.37;1.60;;;;;;;;;;4969291;28;20649;-73
2022/07/03 11:32:59;;;;;;;2.87;1.60;;;;;;;;;;4972415;28;20199;-72
2022/07/03 11:35:46;;;;;;;1.20;1.20;;;;;;;;;;4973438;28;20214;-73
2022/07/03 11:38:27;;;;;;;2.60;1.40;;;;;;;;;;4967954;28;20190;-73
2022/07/03 11:40:54;;;;;;;3.33;1.30;;;;;;;;;;4963310;28;20227;-73
2022/07/03 11:43:20;;;;;;;1.40;1.30;;;;;;;;;;4966693;28;20192;-73
2022/07/03 11:45:47;;;;;;;4.97;1.27;;;;;;;;;;4970190;28;20195;-73
2022/07/03 11:48:15;;;;;;;1.53;1.40;;;;;;;;;;4970056;28;20188;-73
2022/07/03 11:50:42;;;;;;;2.37;1.33;;;;;;;;;;4966070;28;20185;-73
2022/07/03 11:53:20;;;;;;;1.47;1.20;;;;;;;;;;4971128;28;20185;-73
2022/07/03 11:55:51;;;;;;;1.47;1.37;;;;;;;;;;4964801;28;20186;-73
2022/07/03 11:58:17;;;;;;;2.90;1.30;;;;;;;;;;4963358;28;20210;-80
2022/07/03 12:00:43;;;;;;;2.30;1.40;;;;;;;;;;4965019;28;20710;-75
2022/07/03 12:03:15;;;;;;;1.13;1.03;;;;;;;;;;4966893;28;20343;-74
2022/07/03 12:05:51;;;;;;;1.90;1.40;;;;;;;;;;4965258;28;20223;-74
2022/07/03 12:08:28;;;;;;;1.23;1.13;;;;;;;;;;4972651;28;20187;-75
2022/07/03 12:10:58;;;;;;;2.60;1.30;;;;;;;;;;4963083;28;22258;-75
2022/07/03 12:13:30;;;;;;;1.80;1.27;;;;;;;;;;4967772;28;20188;-75
2022/07/03 12:16:01;;;;;;;2.20;1.10;;;;;;;;;;4970565;28;20661;-74
2022/07/03 12:18:27;;;;;;;3.67;1.10;;;;;;;;;;4965623;28;20236;-75
2022/07/03 12:20:54;;;;;;;2.10;1.20;;;;;;;;;;4974254;28;20184;-75
2022/07/03 12:23:20;;;;;;;1.10;1.00;;;;;;;;;;4968627;28;20182;-75
2022/07/03 12:25:46;;;;;;;1.67;1.20;;;;;;;;;;4972468;28;20648;-75
2022/07/03 12:28:12;;;;;;;1.50;1.10;;;;;;;;;;4964015;28;20196;-75
2022/07/03 12:30:39;;;;;;;1.47;1.10;;;;;;;;;;4963573;28;20188;-75
2022/07/03 12:33:06;;;;;;;1.90;1.00;;;;;;;;;;4963143;28;20312;-75
2022/07/03 12:35:33;;;;;;;1.47;1.00;;;;;;;;;;4963722;28;20191;-75
2022/07/03 12:37:59;;;;;;;0.97;0.93;;;;;;;;;;4963958;28;20209;-74
2022/07/03 12:40:25;;;;;;;2.03;1.00;;;;;;;;;;4954694;28;20218;-76
2022/07/03 12:42:55;;;;;;;1.10;1.00;;;;;;;;;;4961759;28;20208;-77
2022/07/03 12:45:25;;;;;;;1.67;0.90;;;;;;;;;;4967651;28;20236;-76
2022/07/03 12:48:05;;;;;;;1.90;1.00;;;;;;;;;;4970153;28;20201;-76
2022/07/03 12:50:54;;;;;;;1.33;1.07;;;;;;;;;;4964663;28;20195;-75
2022/07/03 12:53:31;;;;;;;2.20;1.10;;;;;;;;;;4968181;28;20195;-75
2022/07/03 12:56:01;;;;;;;1.20;1.00;;;;;;;;;;4963597;28;20189;-75
2022/07/03 13:01:26;;;;;;;1.80;0.87;;;;;;;;;;4957609;28;20314;-75
2022/07/03 13:03:52;;;;;;;0.97;0.90;;;;;;;;;;4957516;28;20315;-75
2022/07/03 13:06:20;;;;;;;2.37;0.90;;;;;;;;;;4962363;28;20218;-75
2022/07/03 13:08:50;;;;;;;1.98;0.88;;;;;;;;;;4961580;28;20190;-75
2022/07/03 13:11:25;;;;;;;1.58;0.80;;;;;;;;;;4962222;28;20214;-76
2022/07/03 13:13:51;;;;;;;1.10;0.90;;;;;;;;;;4963224;28;20195;-76
2022/07/03 13:16:24;;;;;;;1.83;0.70;;;;;;;;;;4964012;28;20219;-76
2022/07/03 13:19:00;;;;;;;1.20;0.88;;;;;;;;;;4960944;28;20219;-75
2022/07/03 13:21:27;;;;;;;2.10;0.90;;;;;;;;;;4963135;28;20212;-75
2022/07/03 13:23:53;;;;;;;1.73;1.10;;;;;;;;;;4968897;28;20682;-75
2022/07/03 13:26:20;;;;;;;1.15;0.90;;;;;;;;;;4963372;28;20202;-76
2022/07/03 13:28:46;;;;;;;1.10;0.85;;;;;;;;;;4968002;28;20618;-76
2022/07/03 13:31:12;;;;;;;1.08;0.90;;;;;;;;;;4973198;28;21582;-76
2022/07/03 13:33:39;;;;;;;0.80;0.80;;;;;;;;;;4967397;28;20233;-76
2022/07/03 13:36:05;;;;;;;0.80;0.80;;;;;;;;;;4970660;28;20691;-76
2022/07/03 13:38:31;;;;;;;2.22;0.90;;;;;;;;;;4965156;28;20214;-76
2022/07/03 13:40:57;;;;;;;1.50;0.90;;;;;;;;;;4970127;28;20183;-76
2022/07/03 13:43:24;;;;;;;3.17;2.97;;;;;;;;;;4971524;28;20182;-76
2022/07/03 13:45:50;;;;;;;2.45;1.30;;;;;;;;;;4969337;28;20274;-76
2022/07/03 13:48:16;;;;;;;1.77;1.10;;;;;;;;;;4966517;28;20202;-76
2022/07/03 13:50:42;;;;;;;2.67;0.88;;;;;;;;;;4969794;28;20192;-75
2022/07/03 13:53:09;;;;;;;1.17;0.90;;;;;;;;;;4966884;28;20315;-75
2022/07/03 13:55:35;;;;;;;2.35;0.82;;;;;;;;;;4965857;28;21563;-78
2022/07/03 13:58:04;;;;;;;1.17;0.85;;;;;;;;;;4967620;28;20565;-74
2022/07/03 14:00:30;;;;;;;2.08;0.90;;;;;;;;;;4971764;28;20206;-73
2022/07/03 14:02:57;;;;;;;1.63;1.02;;;;;;;;;;4972752;28;20724;-73
2022/07/03 14:05:23;;;;;;;1.42;1.08;;;;;;;;;;4973526;28;20238;-72
2022/07/03 14:07:49;;;;;;;3.03;1.00;;;;;;;;;;4967916;28;20259;-72
2022/07/03 14:10:15;;;;;;;1.05;0.95;;;;;;;;;;4966983;28;20288;-72
2022/07/03 14:12:42;;;;;;;2.67;1.00;;;;;;;;;;4970823;28;20210;-72
2022/07/03 14:15:08;;;;;;;1.48;0.90;;;;;;;;;;4970352;28;20184;-72
2022/07/03 14:17:35;;;;;;;0.88;0.88;;;;;;;;;;4966345;28;20199;-73
2022/07/03 14:20:01;;;;;;;1.27;1.10;;;;;;;;;;4971920;28;20217;-72
2022/07/03 14:22:27;;;;;;;0.90;0.90;;;;;;;;;;4967469;28;20251;-74
2022/07/03 14:24:53;;;;;;;1.15;0.85;;;;;;;;;;4971405;28;20181;-73
2022/07/03 14:32:50;;;;;;;1.00;0.90;;;;;;;;;;4970963;28;20234;-75
2022/07/03 14:35:16;;;;;;;2.03;0.90;;;;;;;;;;4970544;28;20246;-73
2022/07/03 14:37:42;;;;;;;1.17;1.00;;;;;;;;;;4970616;28;20186;-74
2022/07/03 14:40:09;;;;;;;1.17;0.90;;;;;;;;;;4969752;28;20222;-74
2022/07/03 14:42:35;;;;;;;2.83;0.90;;;;;;;;;;4953545;28;20211;-74
2022/07/03 14:45:01;;;;;;;2.40;1.20;;;;;;;;;;4974849;28;20184;-75
2022/07/03 14:47:27;;;;;;;1.95;0.98;;;;;;;;;;4968861;28;20682;-73
2022/07/03 14:49:53;;;;;;;1.80;0.90;;;;;;;;;;4971947;28;20192;-71
2022/07/03 14:52:19;;;;;;;2.20;1.08;;;;;;;;;;4970258;28;20216;-72
2022/07/03 14:54:45;;;;;;;1.20;1.10;;;;;;;;;;4969136;28;20198;-71
2022/07/03 14:57:23;;;;;;;0.80;0.80;;;;;;;;;;4970298;28;20647;-71
2022/07/03 14:59:50;;;;;;;1.25;0.90;;;;;;;;;;4960255;28;20200;-72
2022/07/03 15:02:20;;;;;;;1.00;0.90;;;;;;;;;;4968009;28;20555;-71
2022/07/03 15:04:49;;;;;;;0.80;0.80;;;;;;;;;;4969562;28;20746;-72
2022/07/03 15:07:18;;;;;;;1.98;0.80;;;;;;;;;;4967485;28;20573;-72
2022/07/03 15:09:50;;;;;;;2.40;1.00;;;;;;;;;;4965429;28;20185;-72